sensor_id;sensor_type;location;lat;lon;timestamp;P1;durP1;ratioP1;P2;durP2;ratioP2
4148;SDS011;2088;51.032;7.082;2022-12-18T00:02:00;4.97;;;3.77;;
4148;SDS011;2088;51.032;7.082;2022-12-18T00:04:28;8.80;;;2.90;;
4148;SDS011;2088;51.032;7.082;2022-12-18T00:06:56;8.30;;;3.43;;
4148;SDS011;2088;51.032;7.082;2022-12-18T00:09:23;2.90;;;2.70;;
4148;SDS011;2088;51.032;7.082;2022-12-18T00:11:50;9.40;;;4.47;;
4148;SDS011;2088;51.032;7.082;2022-12-18T00:14:18;5.80;;;2.70;;
4148;SDS011;2088;51.032;7.082;2022-12-18T00:16:46;8.10;;;3.43;;
4148;SDS011;2088;51.032;7.082;2022-12-18T00:19:13;10.23;;;5.73;;
4148;SDS011;2088;51.032;7.082;2022-12-18T00:21:41;5.93;;;3.47;;
4148;SDS011;2088;51.032;7.082;2022-12-18T00:24:09;5.73;;;3.40;;
4148;SDS011;2088;51.032;7.082;2022-12-18T00:26:37;3.37;;;2.37;;
4148;SDS011;2088;51.032;7.082;2022-12-18T00:29:05;6.13;;;2.80;;
4148;SDS011;2088;51.032;7.082;2022-12-18T00:31:34;6.70;;;3.13;;
4148;SDS011;2088;51.032;7.082;2022-12-18T00:34:01;8.17;;;3.60;;
4148;SDS011;2088;51.032;7.082;2022-12-18T00:36:29;6.33;;;3.47;;
4148;SDS011;2088;51.032;7.082;2022-12-18T00:38:57;4.60;;;2.97;;
4148;SDS011;2088;51.032;7.082;2022-12-18T00:41:25;5.57;;;2.83;;
4148;SDS011;2088;51.032;7.082;2022-12-18T00:44:10;7.63;;;3.50;;
4148;SDS011;2088;51.032;7.082;2022-12-18T00:46:39;6.07;;;3.33;;
4148;SDS011;2088;51.032;7.082;2022-12-18T00:49:06;7.37;;;3.43;;
4148;SDS011;2088;51.032;7.082;2022-12-18T00:51:34;8.10;;;4.50;;
4148;SDS011;2088;51.032;7.082;2022-12-18T00:54:01;12.23;;;3.10;;
4148;SDS011;2088;51.032;7.082;2022-12-18T00:56:28;7.70;;;3.50;;
4148;SDS011;2088;51.032;7.082;2022-12-18T00:58:55;8.73;;;3.47;;
4148;SDS011;2088;51.032;7.082;2022-12-18T01:01:22;5.40;;;2.63;;
4148;SDS011;2088;51.032;7.082;2022-12-18T01:03:50;18.10;;;4.10;;
4148;SDS011;2088;51.032;7.082;2022-12-18T01:06:17;9.10;;;3.30;;
4148;SDS011;2088;51.032;7.082;2022-12-18T01:08:44;7.87;;;4.50;;
4148;SDS011;2088;51.032;7.082;2022-12-18T01:11:12;10.93;;;4.43;;
4148;SDS011;2088;51.032;7.082;2022-12-18T01:13:40;9.33;;;3.60;;
4148;SDS011;2088;51.032;7.082;2022-12-18T01:16:07;4.50;;;2.80;;
4148;SDS011;2088;51.032;7.082;2022-12-18T01:18:34;3.97;;;2.20;;
4148;SDS011;2088;51.032;7.082;2022-12-18T01:21:06;4.67;;;2.87;;
4148;SDS011;2088;51.032;7.082;2022-12-18T01:23:33;6.23;;;2.80;;
4148;SDS011;2088;51.032;7.082;2022-12-18T01:26:04;3.93;;;2.70;;
4148;SDS011;2088;51.032;7.082;2022-12-18T01:28:31;11.83;;;3.50;;
4148;SDS011;2088;51.032;7.082;2022-12-18T01:31:08;9.50;;;2.40;;
4148;SDS011;2088;51.032;7.082;2022-12-18T01:33:35;4.33;;;2.40;;
4148;SDS011;2088;51.032;7.082;2022-12-18T01:36:02;5.10;;;2.70;;
4148;SDS011;2088;51.032;7.082;2022-12-18T01:38:31;5.73;;;3.67;;
4148;SDS011;2088;51.032;7.082;2022-12-18T01:40:58;3.90;;;2.77;;
4148;SDS011;2088;51.032;7.082;2022-12-18T01:43:40;4.93;;;3.10;;
4148;SDS011;2088;51.032;7.082;2022-12-18T01:46:07;5.20;;;2.80;;
4148;SDS011;2088;51.032;7.082;2022-12-18T01:48:34;3.57;;;1.90;;
4148;SDS011;2088;51.032;7.082;2022-12-18T01:51:01;5.33;;;4.07;;
4148;SDS011;2088;51.032;7.082;2022-12-18T01:53:28;7.43;;;3.00;;
4148;SDS011;2088;51.032;7.082;2022-12-18T01:55:57;6.57;;;3.77;;
4148;SDS011;2088;51.032;7.082;2022-12-18T01:58:27;5.27;;;3.20;;
4148;SDS011;2088;51.032;7.082;2022-12-18T02:00:57;5.03;;;2.43;;
4148;SDS011;2088;51.032;7.082;2022-12-18T02:03:24;5.00;;;3.30;;
4148;SDS011;2088;51.032;7.082;2022-12-18T02:05:53;5.43;;;2.63;;
4148;SDS011;2088;51.032;7.082;2022-12-18T02:08:23;4.90;;;2.90;;
4148;SDS011;2088;51.032;7.082;2022-12-18T02:10:54;8.63;;;3.03;;
4148;SDS011;2088;51.032;7.082;2022-12-18T02:13:27;8.30;;;2.93;;
4148;SDS011;2088;51.032;7.082;2022-12-18T02:15:58;7.53;;;3.17;;
4148;SDS011;2088;51.032;7.082;2022-12-18T02:18:27;7.07;;;2.53;;
4148;SDS011;2088;51.032;7.082;2022-12-18T02:20:55;5.17;;;2.47;;
4148;SDS011;2088;51.032;7.082;2022-12-18T02:23:32;6.40;;;2.30;;
4148;SDS011;2088;51.032;7.082;2022-12-18T02:26:08;7.67;;;4.37;;
4148;SDS011;2088;51.032;7.082;2022-12-18T02:28:40;8.70;;;3.47;;
4148;SDS011;2088;51.032;7.082;2022-12-18T02:31:10;6.47;;;4.10;;
4148;SDS011;2088;51.032;7.082;2022-12-18T02:33:38;7.50;;;1.97;;
4148;SDS011;2088;51.032;7.082;2022-12-18T02:36:06;5.33;;;2.47;;
4148;SDS011;2088;51.032;7.082;2022-12-18T02:38:34;5.50;;;2.80;;
4148;SDS011;2088;51.032;7.082;2022-12-18T02:41:01;5.50;;;2.63;;
4148;SDS011;2088;51.032;7.082;2022-12-18T02:43:30;2.93;;;2.23;;
4148;SDS011;2088;51.032;7.082;2022-12-18T02:45:58;8.13;;;2.60;;
4148;SDS011;2088;51.032;7.082;2022-12-18T02:48:27;4.40;;;3.47;;
4148;SDS011;2088;51.032;7.082;2022-12-18T02:50:57;3.30;;;2.33;;
4148;SDS011;2088;51.032;7.082;2022-12-18T02:53:27;5.73;;;2.73;;
4148;SDS011;2088;51.032;7.082;2022-12-18T02:56:01;2.27;;;2.07;;
4148;SDS011;2088;51.032;7.082;2022-12-18T02:58:33;3.27;;;2.27;;
4148;SDS011;2088;51.032;7.082;2022-12-18T03:01:03;7.10;;;3.63;;
4148;SDS011;2088;51.032;7.082;2022-12-18T03:03:33;4.27;;;2.30;;
4148;SDS011;2088;51.032;7.082;2022-12-18T03:06:04;4.23;;;2.50;;
4148;SDS011;2088;51.032;7.082;2022-12-18T03:08:34;3.10;;;2.30;;
4148;SDS011;2088;51.032;7.082;2022-12-18T03:11:03;5.00;;;2.80;;
4148;SDS011;2088;51.032;7.082;2022-12-18T03:13:33;2.10;;;1.90;;
4148;SDS011;2088;51.032;7.082;2022-12-18T03:16:01;4.27;;;2.20;;
4148;SDS011;2088;51.032;7.082;2022-12-18T03:18:30;3.60;;;2.40;;
4148;SDS011;2088;51.032;7.082;2022-12-18T03:21:00;7.03;;;2.77;;
4148;SDS011;2088;51.032;7.082;2022-12-18T03:23:31;6.90;;;2.90;;
4148;SDS011;2088;51.032;7.082;2022-12-18T03:26:01;10.90;;;3.27;;
4148;SDS011;2088;51.032;7.082;2022-12-18T03:28:29;3.70;;;2.50;;
4148;SDS011;2088;51.032;7.082;2022-12-18T03:30:59;3.63;;;2.17;;
4148;SDS011;2088;51.032;7.082;2022-12-18T03:33:27;3.80;;;2.60;;
4148;SDS011;2088;51.032;7.082;2022-12-18T03:35:56;2.70;;;2.07;;
4148;SDS011;2088;51.032;7.082;2022-12-18T03:38:23;8.23;;;2.27;;
4148;SDS011;2088;51.032;7.082;2022-12-18T03:40:53;4.00;;;2.50;;
4148;SDS011;2088;51.032;7.082;2022-12-18T03:43:25;2.90;;;2.30;;
4148;SDS011;2088;51.032;7.082;2022-12-18T03:45:58;4.43;;;2.53;;
4148;SDS011;2088;51.032;7.082;2022-12-18T03:48:31;6.20;;;1.80;;
4148;SDS011;2088;51.032;7.082;2022-12-18T03:51:01;3.50;;;2.00;;
4148;SDS011;2088;51.032;7.082;2022-12-18T03:53:31;4.20;;;2.10;;
4148;SDS011;2088;51.032;7.082;2022-12-18T03:56:00;3.37;;;2.10;;
4148;SDS011;2088;51.032;7.082;2022-12-18T03:58:27;2.73;;;2.27;;
4148;SDS011;2088;51.032;7.082;2022-12-18T04:00:56;3.30;;;2.03;;
4148;SDS011;2088;51.032;7.082;2022-12-18T04:03:23;9.53;;;2.07;;
4148;SDS011;2088;51.032;7.082;2022-12-18T04:05:52;3.83;;;2.30;;
4148;SDS011;2088;51.032;7.082;2022-12-18T04:08:21;3.00;;;2.23;;
4148;SDS011;2088;51.032;7.082;2022-12-18T04:10:48;2.50;;;1.87;;
4148;SDS011;2088;51.032;7.082;2022-12-18T04:13:21;4.53;;;2.30;;
4148;SDS011;2088;51.032;7.082;2022-12-18T04:15:48;5.67;;;2.07;;
4148;SDS011;2088;51.032;7.082;2022-12-18T04:18:15;3.03;;;1.60;;
4148;SDS011;2088;51.032;7.082;2022-12-18T04:20:42;4.40;;;2.40;;
4148;SDS011;2088;51.032;7.082;2022-12-18T04:23:11;2.60;;;1.83;;
4148;SDS011;2088;51.032;7.082;2022-12-18T04:25:38;5.03;;;2.77;;
4148;SDS011;2088;51.032;7.082;2022-12-18T04:28:05;2.10;;;1.90;;
4148;SDS011;2088;51.032;7.082;2022-12-18T04:30:32;3.37;;;2.10;;
4148;SDS011;2088;51.032;7.082;2022-12-18T04:32:59;3.87;;;2.50;;
4148;SDS011;2088;51.032;7.082;2022-12-18T04:35:26;2.83;;;1.90;;
4148;SDS011;2088;51.032;7.082;2022-12-18T04:37:53;4.27;;;1.87;;
4148;SDS011;2088;51.032;7.082;2022-12-18T04:40:22;2.40;;;2.10;;
4148;SDS011;2088;51.032;7.082;2022-12-18T04:42:49;2.83;;;1.67;;
4148;SDS011;2088;51.032;7.082;2022-12-18T04:45:16;3.20;;;1.97;;
4148;SDS011;2088;51.032;7.082;2022-12-18T04:47:43;2.67;;;2.47;;
4148;SDS011;2088;51.032;7.082;2022-12-18T04:50:10;10.03;;;2.37;;
4148;SDS011;2088;51.032;7.082;2022-12-18T04:52:37;5.00;;;2.10;;
4148;SDS011;2088;51.032;7.082;2022-12-18T04:55:04;4.03;;;2.13;;
4148;SDS011;2088;51.032;7.082;2022-12-18T04:57:33;3.40;;;2.33;;
4148;SDS011;2088;51.032;7.082;2022-12-18T05:00:00;2.70;;;2.03;;
4148;SDS011;2088;51.032;7.082;2022-12-18T05:02:27;3.40;;;2.00;;
4148;SDS011;2088;51.032;7.082;2022-12-18T05:04:54;2.43;;;2.20;;
4148;SDS011;2088;51.032;7.082;2022-12-18T05:07:21;3.60;;;1.93;;
4148;SDS011;2088;51.032;7.082;2022-12-18T05:09:48;4.60;;;3.10;;
4148;SDS011;2088;51.032;7.082;2022-12-18T05:12:15;3.90;;;2.07;;
4148;SDS011;2088;51.032;7.082;2022-12-18T05:14:43;3.10;;;2.27;;
4148;SDS011;2088;51.032;7.082;2022-12-18T05:17:11;6.67;;;3.50;;
4148;SDS011;2088;51.032;7.082;2022-12-18T05:19:38;2.93;;;2.00;;
4148;SDS011;2088;51.032;7.082;2022-12-18T05:22:05;4.23;;;2.00;;
4148;SDS011;2088;51.032;7.082;2022-12-18T05:24:32;2.60;;;2.10;;
4148;SDS011;2088;51.032;7.082;2022-12-18T05:26:59;7.23;;;3.00;;
4148;SDS011;2088;51.032;7.082;2022-12-18T05:29:26;4.50;;;1.90;;
4148;SDS011;2088;51.032;7.082;2022-12-18T05:31:54;6.97;;;3.17;;
4148;SDS011;2088;51.032;7.082;2022-12-18T05:34:21;3.40;;;2.00;;
4148;SDS011;2088;51.032;7.082;2022-12-18T05:36:48;8.87;;;4.23;;
4148;SDS011;2088;51.032;7.082;2022-12-18T05:39:15;3.30;;;2.60;;
4148;SDS011;2088;51.032;7.082;2022-12-18T05:41:43;4.47;;;2.33;;
4148;SDS011;2088;51.032;7.082;2022-12-18T05:44:10;7.77;;;3.23;;
4148;SDS011;2088;51.032;7.082;2022-12-18T05:46:37;8.13;;;2.83;;
4148;SDS011;2088;51.032;7.082;2022-12-18T05:49:05;9.10;;;2.90;;
4148;SDS011;2088;51.032;7.082;2022-12-18T05:51:32;7.87;;;3.10;;
4148;SDS011;2088;51.032;7.082;2022-12-18T05:53:59;5.07;;;2.37;;
4148;SDS011;2088;51.032;7.082;2022-12-18T05:56:26;4.03;;;2.07;;
4148;SDS011;2088;51.032;7.082;2022-12-18T05:58:54;4.23;;;2.40;;
4148;SDS011;2088;51.032;7.082;2022-12-18T06:01:22;5.50;;;3.03;;
4148;SDS011;2088;51.032;7.082;2022-12-18T06:03:50;3.13;;;2.40;;
4148;SDS011;2088;51.032;7.082;2022-12-18T06:06:19;4.23;;;2.43;;
4148;SDS011;2088;51.032;7.082;2022-12-18T06:08:47;6.00;;;2.50;;
4148;SDS011;2088;51.032;7.082;2022-12-18T06:11:16;5.07;;;2.60;;
4148;SDS011;2088;51.032;7.082;2022-12-18T06:13:43;3.50;;;2.20;;
4148;SDS011;2088;51.032;7.082;2022-12-18T06:16:10;6.67;;;3.07;;
4148;SDS011;2088;51.032;7.082;2022-12-18T06:18:37;3.23;;;2.30;;
4148;SDS011;2088;51.032;7.082;2022-12-18T06:21:05;6.77;;;2.97;;
4148;SDS011;2088;51.032;7.082;2022-12-18T06:23:33;2.60;;;2.23;;
4148;SDS011;2088;51.032;7.082;2022-12-18T06:26:03;8.80;;;3.10;;
4148;SDS011;2088;51.032;7.082;2022-12-18T06:28:30;4.00;;;2.90;;
4148;SDS011;2088;51.032;7.082;2022-12-18T06:30:57;2.50;;;2.17;;
4148;SDS011;2088;51.032;7.082;2022-12-18T06:33:25;7.83;;;3.00;;
4148;SDS011;2088;51.032;7.082;2022-12-18T06:35:52;7.90;;;2.93;;
4148;SDS011;2088;51.032;7.082;2022-12-18T06:38:20;7.00;;;2.60;;
4148;SDS011;2088;51.032;7.082;2022-12-18T06:40:48;3.53;;;2.10;;
4148;SDS011;2088;51.032;7.082;2022-12-18T06:43:15;5.30;;;2.70;;
4148;SDS011;2088;51.032;7.082;2022-12-18T06:45:42;3.30;;;2.37;;
4148;SDS011;2088;51.032;7.082;2022-12-18T06:48:09;4.90;;;2.57;;
4148;SDS011;2088;51.032;7.082;2022-12-18T06:50:36;6.90;;;3.90;;
4148;SDS011;2088;51.032;7.082;2022-12-18T06:53:03;8.70;;;3.10;;
4148;SDS011;2088;51.032;7.082;2022-12-18T06:55:30;7.18;;;3.30;;
4148;SDS011;2088;51.032;7.082;2022-12-18T06:57:58;8.40;;;4.27;;
4148;SDS011;2088;51.032;7.082;2022-12-18T07:00:25;4.90;;;3.33;;
4148;SDS011;2088;51.032;7.082;2022-12-18T07:02:52;4.03;;;2.90;;
4148;SDS011;2088;51.032;7.082;2022-12-18T07:05:19;6.33;;;3.47;;
4148;SDS011;2088;51.032;7.082;2022-12-18T07:07:47;7.00;;;4.47;;
4148;SDS011;2088;51.032;7.082;2022-12-18T07:10:14;3.87;;;2.63;;
4148;SDS011;2088;51.032;7.082;2022-12-18T07:12:41;7.90;;;3.40;;
4148;SDS011;2088;51.032;7.082;2022-12-18T07:15:09;3.87;;;2.67;;
4148;SDS011;2088;51.032;7.082;2022-12-18T07:17:37;6.43;;;2.80;;
4148;SDS011;2088;51.032;7.082;2022-12-18T07:20:04;3.73;;;3.00;;
4148;SDS011;2088;51.032;7.082;2022-12-18T07:22:31;8.20;;;3.43;;
4148;SDS011;2088;51.032;7.082;2022-12-18T07:24:58;5.43;;;2.50;;
4148;SDS011;2088;51.032;7.082;2022-12-18T07:27:25;3.13;;;2.70;;
4148;SDS011;2088;51.032;7.082;2022-12-18T07:29:52;8.33;;;2.67;;
4148;SDS011;2088;51.032;7.082;2022-12-18T07:32:21;13.20;;;3.60;;
4148;SDS011;2088;51.032;7.082;2022-12-18T07:34:48;5.37;;;2.53;;
4148;SDS011;2088;51.032;7.082;2022-12-18T07:37:15;5.93;;;2.57;;
4148;SDS011;2088;51.032;7.082;2022-12-18T07:39:42;5.97;;;3.00;;
4148;SDS011;2088;51.032;7.082;2022-12-18T07:42:09;5.70;;;3.33;;
4148;SDS011;2088;51.032;7.082;2022-12-18T07:44:54;4.80;;;2.50;;
4148;SDS011;2088;51.032;7.082;2022-12-18T07:47:22;10.83;;;3.47;;
4148;SDS011;2088;51.032;7.082;2022-12-18T07:49:49;5.93;;;3.07;;
4148;SDS011;2088;51.032;7.082;2022-12-18T07:52:16;5.67;;;3.57;;
4148;SDS011;2088;51.032;7.082;2022-12-18T07:54:43;6.97;;;4.17;;
4148;SDS011;2088;51.032;7.082;2022-12-18T07:57:11;7.27;;;3.23;;
4148;SDS011;2088;51.032;7.082;2022-12-18T07:59:41;7.17;;;4.47;;
4148;SDS011;2088;51.032;7.082;2022-12-18T08:02:08;6.97;;;3.40;;
4148;SDS011;2088;51.032;7.082;2022-12-18T08:04:36;8.37;;;4.13;;
4148;SDS011;2088;51.032;7.082;2022-12-18T08:07:03;5.10;;;3.70;;
4148;SDS011;2088;51.032;7.082;2022-12-18T08:09:30;7.40;;;3.70;;
4148;SDS011;2088;51.032;7.082;2022-12-18T08:11:57;3.80;;;2.87;;
4148;SDS011;2088;51.032;7.082;2022-12-18T08:14:24;8.17;;;3.17;;
4148;SDS011;2088;51.032;7.082;2022-12-18T08:16:51;5.73;;;3.27;;
4148;SDS011;2088;51.032;7.082;2022-12-18T08:19:18;6.90;;;3.67;;
4148;SDS011;2088;51.032;7.082;2022-12-18T08:21:47;7.27;;;3.53;;
4148;SDS011;2088;51.032;7.082;2022-12-18T08:24:14;3.40;;;2.93;;
4148;SDS011;2088;51.032;7.082;2022-12-18T08:26:41;4.67;;;2.93;;
4148;SDS011;2088;51.032;7.082;2022-12-18T08:29:08;12.87;;;3.63;;
4148;SDS011;2088;51.032;7.082;2022-12-18T08:31:35;10.27;;;3.77;;
4148;SDS011;2088;51.032;7.082;2022-12-18T08:34:02;7.23;;;4.00;;
4148;SDS011;2088;51.032;7.082;2022-12-18T08:36:29;9.87;;;3.93;;
4148;SDS011;2088;51.032;7.082;2022-12-18T08:38:58;8.17;;;3.60;;
4148;SDS011;2088;51.032;7.082;2022-12-18T08:41:25;7.50;;;3.60;;
4148;SDS011;2088;51.032;7.082;2022-12-18T08:43:52;7.70;;;3.80;;
4148;SDS011;2088;51.032;7.082;2022-12-18T08:46:37;7.80;;;4.10;;
4148;SDS011;2088;51.032;7.082;2022-12-18T08:49:05;9.00;;;3.53;;
4148;SDS011;2088;51.032;7.082;2022-12-18T08:51:32;8.20;;;4.03;;
4148;SDS011;2088;51.032;7.082;2022-12-18T08:54:00;8.30;;;3.30;;
4148;SDS011;2088;51.032;7.082;2022-12-18T08:56:28;8.10;;;4.60;;
4148;SDS011;2088;51.032;7.082;2022-12-18T08:58:55;3.70;;;2.50;;
4148;SDS011;2088;51.032;7.082;2022-12-18T09:01:22;7.80;;;3.33;;
4148;SDS011;2088;51.032;7.082;2022-12-18T09:03:50;3.73;;;2.63;;
4148;SDS011;2088;51.032;7.082;2022-12-18T09:06:18;7.50;;;3.77;;
4148;SDS011;2088;51.032;7.082;2022-12-18T09:08:45;5.20;;;3.20;;
4148;SDS011;2088;51.032;7.082;2022-12-18T09:11:14;4.60;;;2.83;;
4148;SDS011;2088;51.032;7.082;2022-12-18T09:13:41;15.03;;;3.97;;
4148;SDS011;2088;51.032;7.082;2022-12-18T09:16:08;5.17;;;3.47;;
4148;SDS011;2088;51.032;7.082;2022-12-18T09:18:35;10.47;;;3.60;;
4148;SDS011;2088;51.032;7.082;2022-12-18T09:21:09;7.17;;;3.70;;
4148;SDS011;2088;51.032;7.082;2022-12-18T09:23:37;7.73;;;3.43;;
4148;SDS011;2088;51.032;7.082;2022-12-18T09:26:04;9.67;;;3.57;;
4148;SDS011;2088;51.032;7.082;2022-12-18T09:28:32;13.60;;;5.00;;
4148;SDS011;2088;51.032;7.082;2022-12-18T09:31:03;5.70;;;3.23;;
4148;SDS011;2088;51.032;7.082;2022-12-18T09:33:31;5.63;;;3.60;;
4148;SDS011;2088;51.032;7.082;2022-12-18T09:36:00;7.40;;;3.47;;
4148;SDS011;2088;51.032;7.082;2022-12-18T09:38:27;6.23;;;3.27;;
4148;SDS011;2088;51.032;7.082;2022-12-18T09:40:56;7.50;;;3.70;;
4148;SDS011;2088;51.032;7.082;2022-12-18T09:43:27;4.87;;;3.13;;
4148;SDS011;2088;51.032;7.082;2022-12-18T09:45:56;11.87;;;4.57;;
4148;SDS011;2088;51.032;7.082;2022-12-18T09:48:26;9.70;;;3.60;;
4148;SDS011;2088;51.032;7.082;2022-12-18T09:50:54;7.13;;;4.00;;
4148;SDS011;2088;51.032;7.082;2022-12-18T09:53:24;10.63;;;3.83;;
4148;SDS011;2088;51.032;7.082;2022-12-18T09:55:53;11.90;;;3.40;;
4148;SDS011;2088;51.032;7.082;2022-12-18T09:58:33;8.03;;;4.53;;
4148;SDS011;2088;51.032;7.082;2022-12-18T10:01:06;8.33;;;3.20;;
4148;SDS011;2088;51.032;7.082;2022-12-18T10:03:36;8.17;;;2.97;;
4148;SDS011;2088;51.032;7.082;2022-12-18T10:06:05;3.47;;;2.43;;
4148;SDS011;2088;51.032;7.082;2022-12-18T10:08:37;6.30;;;3.73;;
4148;SDS011;2088;51.032;7.082;2022-12-18T10:11:14;6.90;;;3.00;;
4148;SDS011;2088;51.032;7.082;2022-12-18T10:13:44;7.63;;;3.10;;
4148;SDS011;2088;51.032;7.082;2022-12-18T10:16:14;6.30;;;3.43;;
4148;SDS011;2088;51.032;7.082;2022-12-18T10:18:49;6.10;;;3.03;;
4148;SDS011;2088;51.032;7.082;2022-12-18T10:21:21;8.30;;;3.60;;
4148;SDS011;2088;51.032;7.082;2022-12-18T10:23:51;4.67;;;2.87;;
4148;SDS011;2088;51.032;7.082;2022-12-18T10:26:20;6.07;;;3.27;;
4148;SDS011;2088;51.032;7.082;2022-12-18T10:28:47;8.40;;;4.37;;
4148;SDS011;2088;51.032;7.082;2022-12-18T10:31:16;5.87;;;3.23;;
4148;SDS011;2088;51.032;7.082;2022-12-18T10:33:44;6.60;;;3.70;;
4148;SDS011;2088;51.032;7.082;2022-12-18T10:36:11;6.00;;;4.03;;
4148;SDS011;2088;51.032;7.082;2022-12-18T10:38:38;5.60;;;3.40;;
4148;SDS011;2088;51.032;7.082;2022-12-18T10:41:06;4.30;;;3.50;;
4148;SDS011;2088;51.032;7.082;2022-12-18T10:43:36;9.67;;;3.33;;
4148;SDS011;2088;51.032;7.082;2022-12-18T10:46:12;9.20;;;3.03;;
4148;SDS011;2088;51.032;7.082;2022-12-18T10:48:48;7.90;;;3.83;;
4148;SDS011;2088;51.032;7.082;2022-12-18T10:51:20;7.77;;;3.77;;
4148;SDS011;2088;51.032;7.082;2022-12-18T10:53:51;7.33;;;3.37;;
4148;SDS011;2088;51.032;7.082;2022-12-18T10:56:19;6.53;;;3.27;;
4148;SDS011;2088;51.032;7.082;2022-12-18T10:58:54;6.50;;;3.30;;
4148;SDS011;2088;51.032;7.082;2022-12-18T11:01:22;9.30;;;4.10;;
4148;SDS011;2088;51.032;7.082;2022-12-18T11:04:00;8.17;;;3.70;;
4148;SDS011;2088;51.032;7.082;2022-12-18T11:06:28;6.10;;;3.47;;
4148;SDS011;2088;51.032;7.082;2022-12-18T11:08:59;7.43;;;3.53;;
4148;SDS011;2088;51.032;7.082;2022-12-18T11:11:26;6.63;;;3.90;;
4148;SDS011;2088;51.032;7.082;2022-12-18T11:13:57;5.40;;;3.57;;
4148;SDS011;2088;51.032;7.082;2022-12-18T11:16:25;7.70;;;3.50;;
4148;SDS011;2088;51.032;7.082;2022-12-18T11:18:52;9.13;;;4.30;;
4148;SDS011;2088;51.032;7.082;2022-12-18T11:21:21;4.70;;;3.27;;
4148;SDS011;2088;51.032;7.082;2022-12-18T11:23:49;7.03;;;4.37;;
4148;SDS011;2088;51.032;7.082;2022-12-18T11:26:17;6.50;;;4.27;;
4148;SDS011;2088;51.032;7.082;2022-12-18T11:28:46;5.80;;;3.30;;
4148;SDS011;2088;51.032;7.082;2022-12-18T11:31:23;7.93;;;3.60;;
4148;SDS011;2088;51.032;7.082;2022-12-18T11:34:02;8.10;;;4.63;;
4148;SDS011;2088;51.032;7.082;2022-12-18T11:36:33;9.23;;;3.90;;
4148;SDS011;2088;51.032;7.082;2022-12-18T11:39:02;7.60;;;3.90;;
4148;SDS011;2088;51.032;7.082;2022-12-18T11:41:32;9.90;;;6.10;;
4148;SDS011;2088;51.032;7.082;2022-12-18T11:44:18;9.07;;;4.87;;
4148;SDS011;2088;51.032;7.082;2022-12-18T11:46:51;7.07;;;3.70;;
4148;SDS011;2088;51.032;7.082;2022-12-18T11:49:20;7.47;;;4.37;;
4148;SDS011;2088;51.032;7.082;2022-12-18T11:51:49;7.57;;;4.03;;
4148;SDS011;2088;51.032;7.082;2022-12-18T11:54:18;10.20;;;4.07;;
4148;SDS011;2088;51.032;7.082;2022-12-18T11:56:46;11.53;;;5.10;;
4148;SDS011;2088;51.032;7.082;2022-12-18T11:59:15;8.33;;;4.97;;
4148;SDS011;2088;51.032;7.082;2022-12-18T12:01:46;11.93;;;4.63;;
4148;SDS011;2088;51.032;7.082;2022-12-18T12:04:20;9.73;;;3.80;;
4148;SDS011;2088;51.032;7.082;2022-12-18T12:06:55;9.73;;;4.47;;
4148;SDS011;2088;51.032;7.082;2022-12-18T12:09:27;10.93;;;4.93;;
4148;SDS011;2088;51.032;7.082;2022-12-18T12:12:00;4.67;;;3.97;;
4148;SDS011;2088;51.032;7.082;2022-12-18T12:14:33;7.83;;;5.17;;
4148;SDS011;2088;51.032;7.082;2022-12-18T12:17:06;9.50;;;5.97;;
4148;SDS011;2088;51.032;7.082;2022-12-18T12:19:38;10.83;;;5.10;;
4148;SDS011;2088;51.032;7.082;2022-12-18T12:22:11;12.90;;;6.07;;
4148;SDS011;2088;51.032;7.082;2022-12-18T12:24:44;10.33;;;4.80;;
4148;SDS011;2088;51.032;7.082;2022-12-18T12:27:17;10.60;;;5.07;;
4148;SDS011;2088;51.032;7.082;2022-12-18T12:29:50;13.37;;;5.60;;
4148;SDS011;2088;51.032;7.082;2022-12-18T12:32:24;9.27;;;4.77;;
4148;SDS011;2088;51.032;7.082;2022-12-18T12:34:55;9.77;;;4.87;;
4148;SDS011;2088;51.032;7.082;2022-12-18T12:37:29;9.00;;;4.50;;
4148;SDS011;2088;51.032;7.082;2022-12-18T12:39:59;9.93;;;4.73;;
4148;SDS011;2088;51.032;7.082;2022-12-18T12:42:29;16.43;;;5.50;;
4148;SDS011;2088;51.032;7.082;2022-12-18T12:45:31;12.67;;;5.17;;
4148;SDS011;2088;51.032;7.082;2022-12-18T12:48:00;14.30;;;5.07;;
4148;SDS011;2088;51.032;7.082;2022-12-18T12:50:28;6.90;;;5.07;;
4148;SDS011;2088;51.032;7.082;2022-12-18T12:53:01;15.17;;;5.87;;
4148;SDS011;2088;51.032;7.082;2022-12-18T12:55:28;10.80;;;5.87;;
4148;SDS011;2088;51.032;7.082;2022-12-18T12:57:58;11.10;;;5.87;;
4148;SDS011;2088;51.032;7.082;2022-12-18T13:00:28;9.77;;;5.70;;
4148;SDS011;2088;51.032;7.082;2022-12-18T13:02:59;11.60;;;5.60;;
4148;SDS011;2088;51.032;7.082;2022-12-18T13:05:31;15.30;;;5.37;;
4148;SDS011;2088;51.032;7.082;2022-12-18T13:08:03;21.00;;;5.47;;
4148;SDS011;2088;51.032;7.082;2022-12-18T13:10:32;9.70;;;5.27;;
4148;SDS011;2088;51.032;7.082;2022-12-18T13:13:00;8.60;;;5.20;;
4148;SDS011;2088;51.032;7.082;2022-12-18T13:15:29;12.93;;;5.27;;
4148;SDS011;2088;51.032;7.082;2022-12-18T13:18:04;9.20;;;5.47;;
4148;SDS011;2088;51.032;7.082;2022-12-18T13:20:32;8.90;;;5.20;;
4148;SDS011;2088;51.032;7.082;2022-12-18T13:23:02;10.33;;;4.83;;
4148;SDS011;2088;51.032;7.082;2022-12-18T13:25:45;6.10;;;4.77;;
4148;SDS011;2088;51.032;7.082;2022-12-18T13:28:13;14.17;;;7.70;;
4148;SDS011;2088;51.032;7.082;2022-12-18T13:30:41;13.13;;;6.80;;
4148;SDS011;2088;51.032;7.082;2022-12-18T13:36:00;14.07;;;4.17;;
4148;SDS011;2088;51.032;7.082;2022-12-18T13:38:34;11.27;;;6.37;;
4148;SDS011;2088;51.032;7.082;2022-12-18T13:41:01;14.83;;;6.27;;
4148;SDS011;2088;51.032;7.082;2022-12-18T13:43:33;12.80;;;6.90;;
4148;SDS011;2088;51.032;7.082;2022-12-18T13:46:04;10.37;;;5.63;;
4148;SDS011;2088;51.032;7.082;2022-12-18T13:48:32;10.63;;;5.30;;
4148;SDS011;2088;51.032;7.082;2022-12-18T13:51:01;12.13;;;6.20;;
4148;SDS011;2088;51.032;7.082;2022-12-18T13:53:30;13.20;;;5.63;;
4148;SDS011;2088;51.032;7.082;2022-12-18T13:56:01;10.03;;;5.40;;
4148;SDS011;2088;51.032;7.082;2022-12-18T13:58:29;13.93;;;7.10;;
4148;SDS011;2088;51.032;7.082;2022-12-18T14:00:56;14.47;;;6.43;;
4148;SDS011;2088;51.032;7.082;2022-12-18T14:03:25;17.93;;;6.67;;
4148;SDS011;2088;51.032;7.082;2022-12-18T14:05:56;15.03;;;7.27;;
4148;SDS011;2088;51.032;7.082;2022-12-18T14:08:23;11.67;;;6.87;;
4148;SDS011;2088;51.032;7.082;2022-12-18T14:10:51;13.00;;;6.47;;
4148;SDS011;2088;51.032;7.082;2022-12-18T14:13:21;10.53;;;6.17;;
4148;SDS011;2088;51.032;7.082;2022-12-18T14:15:50;15.03;;;6.60;;
4148;SDS011;2088;51.032;7.082;2022-12-18T14:18:19;17.07;;;8.60;;
4148;SDS011;2088;51.032;7.082;2022-12-18T14:20:47;14.73;;;5.77;;
4148;SDS011;2088;51.032;7.082;2022-12-18T14:23:25;11.20;;;6.00;;
4148;SDS011;2088;51.032;7.082;2022-12-18T14:25:52;14.73;;;7.00;;
4148;SDS011;2088;51.032;7.082;2022-12-18T14:28:21;17.20;;;8.93;;
4148;SDS011;2088;51.032;7.082;2022-12-18T14:30:48;14.73;;;6.90;;
4148;SDS011;2088;51.032;7.082;2022-12-18T14:33:16;15.97;;;6.50;;
4148;SDS011;2088;51.032;7.082;2022-12-18T14:35:52;15.20;;;5.57;;
4148;SDS011;2088;51.032;7.082;2022-12-18T14:38:22;14.77;;;6.70;;
4148;SDS011;2088;51.032;7.082;2022-12-18T14:40:52;10.43;;;5.50;;
4148;SDS011;2088;51.032;7.082;2022-12-18T14:43:21;18.00;;;6.37;;
4148;SDS011;2088;51.032;7.082;2022-12-18T14:45:48;13.80;;;7.73;;
4148;SDS011;2088;51.032;7.082;2022-12-18T14:48:16;19.37;;;7.20;;
4148;SDS011;2088;51.032;7.082;2022-12-18T14:50:44;18.17;;;6.70;;
4148;SDS011;2088;51.032;7.082;2022-12-18T14:53:18;13.60;;;8.33;;
4148;SDS011;2088;51.032;7.082;2022-12-18T14:55:46;14.77;;;6.90;;
4148;SDS011;2088;51.032;7.082;2022-12-18T14:58:14;14.63;;;6.83;;
4148;SDS011;2088;51.032;7.082;2022-12-18T15:00:43;12.83;;;6.30;;
4148;SDS011;2088;51.032;7.082;2022-12-18T15:03:12;15.10;;;6.43;;
4148;SDS011;2088;51.032;7.082;2022-12-18T15:05:40;19.40;;;8.07;;
4148;SDS011;2088;51.032;7.082;2022-12-18T15:10:49;15.87;;;6.47;;
4148;SDS011;2088;51.032;7.082;2022-12-18T15:13:20;9.97;;;5.63;;
4148;SDS011;2088;51.032;7.082;2022-12-18T15:15:49;14.67;;;6.57;;
4148;SDS011;2088;51.032;7.082;2022-12-18T15:18:16;14.97;;;6.80;;
4148;SDS011;2088;51.032;7.082;2022-12-18T15:20:45;14.07;;;7.90;;
4148;SDS011;2088;51.032;7.082;2022-12-18T15:23:17;13.70;;;6.90;;
4148;SDS011;2088;51.032;7.082;2022-12-18T15:25:45;13.43;;;6.13;;
4148;SDS011;2088;51.032;7.082;2022-12-18T15:28:17;16.27;;;7.60;;
4148;SDS011;2088;51.032;7.082;2022-12-18T15:31:03;14.63;;;6.60;;